Aérodrome :
LOGIN :

S'inscrire | Disclaimer

   EN    FR    IT 

 










Légende :    VFR   VFR Marginal   IFR   IFR Intensif   IFR Très Intensif
Visi : 
Plafond : 
>= 8 km
>= 3000ft
5 à 8 km
1000 à 3000 ft
1500m à 5 km
500 à 1000 ft
800 à 1500m
200 à 500 ft
< 800m
< 200 ft
Symboles :   Orages  Brouillard  Fortes neiges  Fortes précipitations  Vent > 20 kt
SIGMETs :   Divers  Orages  Givrage  Turbulence  Onde Orograph.  Cendres Volcan.







- Altitude de l'aérodrome : 1036 ft
- Code IATA : CLJ


LRCL - Cluj-Napoca International

DERNIER METAR :
  • 172230Z 00000KT 5000 BR NSC 01/M01 Q1013 R07/15//95

METARs EXPIRÉS :
  • 172200Z 19001KT 5000 BR NSC 01/M01 Q1013 R07/15//95
  • 172130Z VRB01KT 5000 BR OVC065 01/M01 Q1013 R07/15//95
  • 172100Z 00000KT 5000 BR OVC055 01/M01 Q1013 R07/15//95
  • 172030Z VRB01KT 5000 BR OVC059 01/M01 Q1013 R07/15//95
  • 172000Z 00000KT 5000 BR OVC058 01/M01 Q1013 R07/15//95

TAF TAF LRCL
Valide du 17 à 21h jusqu'au 18 à 06h UTC


172000Z 1721/1806 VRB04KT 5000 BR BKN050
BECMG 1722/1724 1500 BR
TEMPO 1802/1806 0350 FZFG VV001
Pas de NOTAMs connus pour ce terrain.



MET'MAP, la Météo Aéronautique d'un coup d'oeil ! - Copyright ORBIFLY Décembre 2007 - Disclaimer

ORBIFLY MET'MAP TEAM :

Programmation & Développement : Alexandra Zaïnal
Conception & Développement : Baudouin d'Aumeries
Co-Programmation & Développement : Marc-Olivier Méhu
Soutien technique & logistique : Manuel Goepfert

Contact : metmap@orbifly.com




SOURCES & CREDITS :

   NOAA